createdAt,value
2023-05-06T00:00:18.061Z,14.30
2023-05-06T00:02:48.180Z,14.10
2023-05-06T00:05:18.681Z,14.20
2023-05-06T00:07:51.217Z,14.20
2023-05-06T00:10:21.452Z,14.10
2023-05-06T00:12:51.528Z,14.10
2023-05-06T00:15:21.548Z,14.00
2023-05-06T00:17:51.564Z,14.10
2023-05-06T00:20:21.638Z,14.10
2023-05-06T00:22:54.297Z,14.10
2023-05-06T00:25:24.554Z,14.00
2023-05-06T00:27:55.548Z,13.90
2023-05-06T00:30:26.139Z,13.90
2023-05-06T00:32:58.066Z,13.90
2023-05-06T00:35:28.042Z,13.90
2023-05-06T00:38:10.564Z,13.70
2023-05-06T00:40:40.785Z,13.60
2023-05-06T00:43:10.759Z,13.40
2023-05-06T00:45:41.323Z,13.30
2023-05-06T00:48:12.377Z,13.20
2023-05-06T00:50:43.823Z,13.20
2023-05-06T00:53:16.451Z,13.20
2023-05-06T00:55:46.416Z,13.20
2023-05-06T00:58:17.504Z,13.20
2023-05-06T01:00:47.492Z,13.40
2023-05-06T01:03:17.548Z,13.50
2023-05-06T01:05:57.649Z,13.70
2023-05-06T01:08:35.182Z,13.50
2023-05-06T01:11:10.604Z,13.50
2023-05-06T01:13:48.062Z,13.40
2023-05-06T01:16:20.808Z,13.30
2023-05-06T01:18:52.019Z,13.20
2023-05-06T01:21:23.044Z,13.10
2023-05-06T01:23:58.840Z,13.00
2023-05-06T01:26:29.976Z,12.90
2023-05-06T01:29:02.175Z,12.90
2023-05-06T01:31:45.790Z,12.90
2023-05-06T01:34:21.270Z,12.80
2023-05-06T01:36:59.094Z,12.70
2023-05-06T01:39:34.670Z,12.70
2023-05-06T01:42:05.853Z,12.70
2023-05-06T01:44:37.059Z,12.50
2023-05-06T01:47:08.598Z,12.30
2023-05-06T01:49:39.171Z,12.20
2023-05-06T01:52:09.142Z,12.10
2023-05-06T01:54:41.621Z,12.00
2023-05-06T01:57:11.560Z,12.00
2023-05-06T01:59:41.483Z,12.00
2023-05-06T02:02:11.443Z,12.10
2023-05-06T02:04:41.449Z,12.30
2023-05-06T02:07:11.426Z,12.30
2023-05-06T02:09:43.946Z,12.40
2023-05-06T02:12:14.136Z,12.70
2023-05-06T02:14:44.568Z,12.90
2023-05-06T02:17:14.624Z,13.00
2023-05-06T02:19:45.122Z,13.10
2023-05-06T02:22:15.000Z,13.00
2023-05-06T02:24:47.453Z,13.00
2023-05-06T02:27:17.369Z,12.90
2023-05-06T02:29:47.282Z,12.90
2023-05-06T02:32:17.205Z,12.90
2023-05-06T02:34:47.072Z,13.00
2023-05-06T02:37:17.030Z,13.00
2023-05-06T02:39:49.501Z,13.00
2023-05-06T02:42:19.697Z,12.90
2023-05-06T02:44:49.658Z,12.90
2023-05-06T02:47:19.654Z,13.00
2023-05-06T02:49:49.506Z,13.20
2023-05-06T02:52:19.393Z,13.10
2023-05-06T02:54:52.026Z,12.90
2023-05-06T02:57:21.913Z,12.80
2023-05-06T02:59:51.807Z,12.70
2023-05-06T03:02:21.869Z,12.70
2023-05-06T03:04:51.940Z,12.60
2023-05-06T03:07:21.966Z,12.60
2023-05-06T03:09:54.623Z,12.40
2023-05-06T03:12:24.536Z,12.30
2023-05-06T03:14:54.486Z,12.30
2023-05-06T03:17:24.652Z,12.30
2023-05-06T03:19:55.664Z,12.40
2023-05-06T03:22:25.989Z,12.30
2023-05-06T03:24:58.695Z,12.40
2023-05-06T03:27:30.097Z,12.30
2023-05-06T03:30:06.608Z,12.20
2023-05-06T03:32:36.681Z,12.40
2023-05-06T03:35:08.649Z,12.80
2023-05-06T03:37:39.033Z,12.70
2023-05-06T03:40:12.699Z,12.60
2023-05-06T03:42:42.657Z,12.40
2023-05-06T03:45:13.233Z,12.20
2023-05-06T03:47:44.146Z,12.00
2023-05-06T03:50:14.847Z,11.90
2023-05-06T03:52:45.611Z,11.70
2023-05-06T03:55:18.334Z,11.80
2023-05-06T03:57:48.590Z,11.80
2023-05-06T04:00:19.099Z,11.80
2023-05-06T04:02:53.418Z,11.80
2023-05-06T04:05:29.746Z,11.90
2023-05-06T04:08:00.972Z,11.70
2023-05-06T04:10:33.761Z,11.70
2023-05-06T04:13:09.644Z,11.70
2023-05-06T04:15:44.506Z,11.70
2023-05-06T04:18:20.216Z,11.40
2023-05-06T04:21:00.240Z,11.50
2023-05-06T04:23:31.812Z,11.60
2023-05-06T04:26:05.142Z,12.00
2023-05-06T04:28:36.750Z,12.20
2023-05-06T04:31:08.778Z,12.30
2023-05-06T04:33:46.595Z,12.30
2023-05-06T04:36:25.034Z,12.20
2023-05-06T04:39:16.493Z,12.20
2023-05-06T04:41:49.296Z,12.20
2023-05-06T04:44:24.805Z,12.10
2023-05-06T04:46:55.514Z,12.00
2023-05-06T04:49:25.567Z,12.00
2023-05-06T04:51:57.199Z,12.00
2023-05-06T04:54:27.796Z,12.10
2023-05-06T04:57:00.271Z,12.30
2023-05-06T04:59:31.696Z,12.50
2023-05-06T05:02:02.563Z,12.80
2023-05-06T05:04:32.642Z,13.00
2023-05-06T05:07:02.598Z,13.20
2023-05-06T05:09:33.833Z,13.50
2023-05-06T05:12:07.470Z,13.80
2023-05-06T05:14:41.390Z,14.00
2023-05-06T05:17:12.603Z,14.20
2023-05-06T05:19:44.453Z,14.20
2023-05-06T05:22:16.119Z,14.30
2023-05-06T05:24:46.003Z,14.40
2023-05-06T05:27:18.486Z,14.40
2023-05-06T05:29:49.099Z,14.60
2023-05-06T05:32:20.333Z,14.80
2023-05-06T05:34:50.647Z,14.90
2023-05-06T05:37:21.356Z,15.00
2023-05-06T05:39:51.488Z,15.00
2023-05-06T05:42:24.704Z,15.10
2023-05-06T05:44:55.213Z,15.40
2023-05-06T05:47:25.261Z,15.60
2023-05-06T05:49:55.409Z,15.60
2023-05-06T05:52:27.107Z,15.70
2023-05-06T05:54:57.241Z,15.80
2023-05-06T05:57:30.931Z,16.00
2023-05-06T06:00:01.198Z,16.10
2023-05-06T06:02:34.850Z,16.10
2023-05-06T06:05:04.949Z,16.30
2023-05-06T06:07:35.343Z,16.50
2023-05-06T06:10:05.282Z,16.70
2023-05-06T06:12:38.297Z,17.10
2023-05-06T06:15:09.524Z,17.40
2023-05-06T06:17:40.266Z,17.60
2023-05-06T06:20:11.656Z,17.90
2023-05-06T06:22:41.728Z,18.10
2023-05-06T06:25:12.820Z,18.30
2023-05-06T06:27:45.375Z,18.40
2023-05-06T06:30:16.395Z,18.50
2023-05-06T06:32:51.967Z,18.50
2023-05-06T06:35:23.647Z,18.40
2023-05-06T06:37:53.886Z,18.70
2023-05-06T06:40:25.542Z,19.40
2023-05-06T06:42:58.022Z,20.10
2023-05-06T06:45:53.756Z,20.70
2023-05-06T06:48:23.916Z,21.10
2023-05-06T06:50:53.779Z,21.80
2023-05-06T06:53:23.710Z,22.50
2023-05-06T06:55:53.706Z,23.10
2023-05-06T06:58:26.241Z,24.30
2023-05-06T07:00:56.117Z,25.90
2023-05-06T07:03:25.969Z,27.80
2023-05-06T07:05:56.078Z,28.70
2023-05-06T07:08:25.947Z,28.90
2023-05-06T07:10:56.662Z,28.90
2023-05-06T07:13:29.150Z,28.00
2023-05-06T07:15:58.999Z,26.20
2023-05-06T07:18:28.968Z,24.40
2023-05-06T07:20:58.808Z,24.10
2023-05-06T07:23:29.920Z,24.20
2023-05-06T07:26:01.930Z,24.80
2023-05-06T07:28:34.391Z,24.70
2023-05-06T07:31:04.260Z,24.80
2023-05-06T07:33:34.499Z,24.90
2023-05-06T07:36:04.377Z,26.20
2023-05-06T07:38:34.393Z,26.80
2023-05-06T07:41:04.228Z,26.70
2023-05-06T07:43:36.737Z,26.70
2023-05-06T07:46:07.345Z,26.20
2023-05-06T07:48:37.283Z,25.40
2023-05-06T07:51:07.622Z,24.50
2023-05-06T07:53:40.167Z,24.60
2023-05-06T07:56:10.122Z,26.80
2023-05-06T07:58:42.851Z,29.50
2023-05-06T08:01:12.891Z,31.00
2023-05-06T08:03:42.950Z,31.60
2023-05-06T08:06:13.076Z,32.70
2023-05-06T08:08:42.971Z,32.80
2023-05-06T08:11:12.956Z,31.90
2023-05-06T08:13:46.268Z,30.80
2023-05-06T08:16:16.187Z,29.20
2023-05-06T08:18:46.034Z,28.60
2023-05-06T08:21:16.031Z,28.20
2023-05-06T08:23:45.891Z,27.50
2023-05-06T08:26:15.805Z,26.70
2023-05-06T08:28:48.307Z,25.60
2023-05-06T08:31:17.991Z,24.80
2023-05-06T08:33:47.916Z,24.40
2023-05-06T08:36:17.807Z,25.50
2023-05-06T08:38:51.002Z,27.40
2023-05-06T08:41:22.773Z,27.60
2023-05-06T08:43:58.396Z,28.10
2023-05-06T08:46:30.990Z,27.70
2023-05-06T08:49:01.051Z,27.90
2023-05-06T08:51:32.603Z,29.00
2023-05-06T08:54:04.869Z,30.50
2023-05-06T08:56:36.497Z,31.60
2023-05-06T08:59:09.660Z,31.50
2023-05-06T09:14:17.805Z,37.00
2023-05-06T09:16:49.826Z,37.80
2023-05-06T09:19:21.643Z,37.80
2023-05-06T09:21:52.834Z,35.60
2023-05-06T09:24:23.676Z,33.20
2023-05-06T09:26:55.464Z,31.60
2023-05-06T09:29:28.085Z,30.30
2023-05-06T09:31:58.271Z,28.50
2023-05-06T09:34:28.118Z,27.90
2023-05-06T09:36:58.863Z,27.80
2023-05-06T09:39:29.361Z,29.30
2023-05-06T09:41:59.651Z,29.80
2023-05-06T09:44:32.177Z,29.60
2023-05-06T09:47:02.331Z,29.00
2023-05-06T09:49:32.471Z,29.30
2023-05-06T09:52:03.230Z,31.20
2023-05-06T09:54:33.928Z,33.10
2023-05-06T09:57:05.087Z,34.90
2023-05-06T09:59:39.305Z,34.40
2023-05-06T10:02:09.555Z,33.40
2023-05-06T10:04:41.081Z,33.40
2023-05-06T10:07:12.657Z,33.60
2023-05-06T10:09:44.196Z,32.20
2023-05-06T10:12:14.124Z,31.10
2023-05-06T10:14:46.718Z,29.40
2023-05-06T10:17:17.038Z,29.90
2023-05-06T10:19:49.342Z,30.40
2023-05-06T10:22:32.136Z,31.50
2023-05-06T10:25:06.410Z,31.90
2023-05-06T10:27:42.507Z,32.60
2023-05-06T10:30:17.766Z,33.50
2023-05-06T10:32:48.992Z,34.50
2023-05-06T10:35:29.726Z,34.30
2023-05-06T10:38:00.638Z,35.30
2023-05-06T10:40:30.672Z,35.90
2023-05-06T10:43:27.999Z,35.60
2023-05-06T10:46:09.424Z,35.70
2023-05-06T10:48:40.503Z,37.00
2023-05-06T10:51:27.406Z,38.40
2023-05-06T10:54:02.737Z,38.90
2023-05-06T10:56:34.670Z,38.40
2023-05-06T10:59:08.194Z,36.70
2023-05-06T11:09:22.202Z,29.50
2023-05-06T11:12:03.929Z,28.70
2023-05-06T11:14:37.941Z,28.30
2023-05-06T11:17:12.113Z,28.10
2023-05-06T11:19:42.392Z,28.00
2023-05-06T11:22:32.276Z,29.20
2023-05-06T11:25:02.200Z,30.50
2023-05-06T11:27:32.825Z,30.60
2023-05-06T11:30:02.714Z,31.20
2023-05-06T11:32:36.537Z,33.20
2023-05-06T11:35:07.695Z,34.80
2023-05-06T11:37:38.672Z,35.60
2023-05-06T11:40:16.961Z,34.80
2023-05-06T11:42:46.941Z,35.90
2023-05-06T11:45:17.045Z,37.80
2023-05-06T11:47:49.652Z,39.70
2023-05-06T11:50:24.866Z,39.90
2023-05-06T11:52:54.960Z,38.70
2023-05-06T11:55:25.056Z,38.60
2023-05-06T11:57:56.461Z,38.00
2023-05-06T12:00:27.012Z,37.40
2023-05-06T12:03:03.320Z,35.50
2023-05-06T12:05:34.173Z,32.70
2023-05-06T12:08:08.360Z,30.80
2023-05-06T12:10:43.599Z,29.00
2023-05-06T12:13:15.171Z,28.50
2023-05-06T12:15:45.682Z,28.40
2023-05-06T12:18:18.939Z,28.70
2023-05-06T12:20:48.877Z,29.10
2023-05-06T12:23:20.169Z,29.60
2023-05-06T12:26:02.451Z,30.00
2023-05-06T12:28:33.819Z,30.70
2023-05-06T12:31:03.810Z,30.00
2023-05-06T12:33:51.918Z,28.90
2023-05-06T12:36:22.424Z,28.10
2023-05-06T12:38:56.880Z,27.40
2023-05-06T12:41:28.233Z,28.60
2023-05-06T12:43:58.152Z,31.00
2023-05-06T12:46:28.245Z,31.30
2023-05-06T12:49:05.736Z,31.50
2023-05-06T12:51:35.623Z,32.80
2023-05-06T12:54:05.522Z,32.30
2023-05-06T12:56:35.522Z,31.90
2023-05-06T12:59:05.976Z,32.60
2023-05-06T13:01:35.979Z,32.90
2023-05-06T13:04:09.650Z,33.40
2023-05-06T13:06:39.568Z,33.00
2023-05-06T13:09:09.813Z,32.30
2023-05-06T13:11:39.707Z,31.10
2023-05-06T13:14:09.833Z,30.80
2023-05-06T13:16:40.637Z,29.90
2023-05-06T13:19:31.033Z,30.90
2023-05-06T13:22:02.944Z,32.20
2023-05-06T13:24:32.866Z,33.70
2023-05-06T13:27:02.742Z,33.70
2023-05-06T13:29:32.978Z,33.70
2023-05-06T13:32:05.742Z,31.90
2023-05-06T13:34:39.555Z,32.90
2023-05-06T13:37:09.402Z,33.60
2023-05-06T13:39:39.226Z,34.40
2023-05-06T13:42:09.190Z,33.40
2023-05-06T13:44:39.041Z,32.40
2023-05-06T13:47:08.961Z,31.50
2023-05-06T13:49:41.417Z,29.40
2023-05-06T13:52:11.290Z,28.30
2023-05-06T13:54:41.246Z,27.80
2023-05-06T13:57:11.258Z,27.00
2023-05-06T13:59:41.139Z,27.10
2023-05-06T14:02:12.018Z,27.70
2023-05-06T14:04:44.567Z,27.70
2023-05-06T14:07:14.450Z,27.50
2023-05-06T14:09:44.318Z,26.90
2023-05-06T14:12:14.188Z,26.80
2023-05-06T14:14:44.038Z,27.00
2023-05-06T14:17:13.964Z,28.50
2023-05-06T14:19:46.420Z,29.40
2023-05-06T14:22:16.286Z,29.90
2023-05-06T14:24:46.155Z,29.70
2023-05-06T14:27:16.154Z,28.90
2023-05-06T14:29:46.426Z,29.20
2023-05-06T14:32:16.364Z,29.80
2023-05-06T14:34:49.009Z,30.60
2023-05-06T14:37:18.931Z,30.60
2023-05-06T14:39:48.812Z,31.40
2023-05-06T14:42:18.873Z,31.60
2023-05-06T14:44:49.232Z,32.00
2023-05-06T14:47:19.600Z,30.90
2023-05-06T14:49:52.110Z,30.50
2023-05-06T14:52:22.018Z,30.50
2023-05-06T14:54:51.904Z,30.10
2023-05-06T14:57:21.911Z,29.60
2023-05-06T14:59:53.171Z,29.20
2023-05-06T15:02:23.106Z,29.20
2023-05-06T15:04:55.699Z,29.50
2023-05-06T15:07:25.617Z,29.00
2023-05-06T15:09:55.509Z,28.80
2023-05-06T15:12:25.420Z,28.90
2023-05-06T15:14:55.318Z,28.90
2023-05-06T15:17:25.290Z,29.20
2023-05-06T15:19:57.754Z,29.00
2023-05-06T15:22:27.612Z,29.10
2023-05-06T15:24:57.492Z,29.10
2023-05-06T15:27:27.582Z,29.40
2023-05-06T15:29:57.460Z,29.90
2023-05-06T15:32:27.396Z,29.80
2023-05-06T15:34:59.902Z,29.80
2023-05-06T15:37:29.759Z,29.60
2023-05-06T15:39:59.589Z,29.60
2023-05-06T15:42:29.566Z,29.20
2023-05-06T15:45:00.650Z,28.50
2023-05-06T15:47:30.627Z,28.70
2023-05-06T15:50:09.254Z,28.80
2023-05-06T15:52:45.845Z,28.40
2023-05-06T15:55:16.863Z,28.30
2023-05-06T15:57:46.958Z,27.80
2023-05-06T16:00:17.810Z,27.50
2023-05-06T16:02:51.362Z,27.70
2023-05-06T16:05:23.890Z,27.90
2023-05-06T16:07:55.917Z,27.50
2023-05-06T16:10:25.980Z,26.80
2023-05-06T16:12:56.349Z,26.00
2023-05-06T16:15:26.346Z,25.50
2023-05-06T16:17:56.443Z,25.10
2023-05-06T16:20:29.823Z,25.00
2023-05-06T16:22:59.646Z,24.80
2023-05-06T16:25:29.579Z,24.60
2023-05-06T16:27:59.752Z,24.50
2023-05-06T16:30:29.959Z,24.60
2023-05-06T16:32:59.963Z,24.80
2023-05-06T16:35:32.784Z,25.00
2023-05-06T16:38:02.614Z,25.10
2023-05-06T16:40:32.773Z,25.20
2023-05-06T16:43:02.638Z,25.10
2023-05-06T16:45:32.495Z,24.60
2023-05-06T16:48:02.428Z,24.50
2023-05-06T16:50:34.901Z,24.20
2023-05-06T16:53:04.733Z,24.30
2023-05-06T16:55:34.685Z,24.30
2023-05-06T16:58:04.815Z,24.20
2023-05-06T17:00:34.727Z,24.10
2023-05-06T17:03:04.730Z,24.00
2023-05-06T17:05:37.420Z,24.00
2023-05-06T17:08:08.337Z,24.00
2023-05-06T17:10:38.336Z,23.70
2023-05-06T17:13:08.340Z,23.60
2023-05-06T17:15:38.372Z,23.40
2023-05-06T17:18:09.377Z,23.30
2023-05-06T17:20:54.475Z,23.40
2023-05-06T17:23:25.479Z,23.40
2023-05-06T17:25:55.405Z,23.00
2023-05-06T17:28:25.294Z,23.00
2023-05-06T17:30:55.197Z,22.80
2023-05-06T17:33:25.088Z,22.50
2023-05-06T17:35:57.515Z,22.20
2023-05-06T17:38:27.345Z,22.00
2023-05-06T17:40:57.179Z,21.90
2023-05-06T17:43:27.101Z,21.70
2023-05-06T17:45:57.241Z,21.40
2023-05-06T17:48:27.247Z,21.40
2023-05-06T17:51:02.984Z,21.20
2023-05-06T17:53:34.258Z,21.00
2023-05-06T17:56:04.174Z,21.00
2023-05-06T17:58:34.012Z,21.00
2023-05-06T18:01:03.963Z,20.90
2023-05-06T18:03:34.016Z,20.90
2023-05-06T18:06:06.649Z,20.80
2023-05-06T18:08:36.548Z,20.70
2023-05-06T18:11:06.692Z,20.60
2023-05-06T18:13:38.381Z,20.40
2023-05-06T18:16:09.119Z,20.30
2023-05-06T18:18:39.014Z,20.20
2023-05-06T18:21:11.506Z,20.00
2023-05-06T18:23:41.386Z,19.90
2023-05-06T18:26:11.351Z,19.90
2023-05-06T18:28:43.154Z,19.90
2023-05-06T18:31:13.094Z,19.90
2023-05-06T18:33:42.991Z,19.80
2023-05-06T18:36:15.995Z,19.80
2023-05-06T18:38:45.895Z,19.70
2023-05-06T18:41:15.761Z,19.40
2023-05-06T18:43:45.643Z,19.40
2023-05-06T18:46:15.530Z,19.30
2023-05-06T18:48:45.563Z,19.20
2023-05-06T18:51:19.329Z,19.00
2023-05-06T18:53:49.279Z,18.80
2023-05-06T18:56:19.162Z,18.80
2023-05-06T18:58:49.076Z,18.70
2023-05-06T19:01:18.984Z,18.50
2023-05-06T19:03:49.119Z,18.40
2023-05-06T19:06:21.665Z,18.30
2023-05-06T19:08:51.559Z,18.30
2023-05-06T19:11:21.600Z,18.10
2023-05-06T19:13:52.625Z,18.00
2023-05-06T19:16:22.594Z,18.10
2023-05-06T19:18:52.545Z,18.10
2023-05-06T19:21:25.134Z,18.00
2023-05-06T19:23:59.801Z,17.90
2023-05-06T19:26:29.830Z,17.80
2023-05-06T19:28:59.672Z,17.60
2023-05-06T19:31:29.886Z,17.50
2023-05-06T19:33:59.897Z,17.30
2023-05-06T19:36:32.340Z,17.10
2023-05-06T21:09:38.175Z,15.40
2023-05-06T21:12:08.403Z,15.20
2023-05-06T21:14:38.327Z,15.10
2023-05-06T21:17:08.581Z,15.00
2023-05-06T21:19:38.552Z,14.90
2023-05-06T21:22:12.374Z,14.80
2023-05-06T21:24:42.234Z,14.60
2023-05-06T21:27:12.115Z,14.50
2023-05-06T21:29:41.965Z,14.40
2023-05-06T21:32:11.926Z,14.30
2023-05-06T21:34:41.960Z,14.30
2023-05-06T21:37:14.477Z,14.40
2023-05-06T21:39:44.385Z,14.30
2023-05-06T21:42:14.287Z,14.30
2023-05-06T21:44:44.129Z,14.30
2023-05-06T21:47:14.011Z,14.30
2023-05-06T21:49:43.869Z,14.30
2023-05-06T21:52:16.290Z,14.30
2023-05-06T21:54:48.725Z,14.20
2023-05-06T21:57:18.983Z,14.10
2023-05-06T21:59:48.850Z,14.10
2023-05-06T22:02:18.899Z,14.10
2023-05-06T22:04:49.003Z,14.10
2023-05-06T22:07:21.571Z,14.10
2023-05-06T22:09:51.446Z,14.10
2023-05-06T22:12:21.965Z,14.00
2023-05-06T22:14:51.877Z,14.00
2023-05-06T22:17:22.328Z,14.00
2023-05-06T22:19:54.597Z,14.00
2023-05-06T22:22:27.608Z,13.90
2023-05-06T22:24:57.474Z,13.80
2023-05-06T22:27:27.534Z,13.70
2023-05-06T22:29:57.543Z,13.60
2023-05-06T22:32:27.525Z,13.60
2023-05-06T22:34:57.445Z,13.60
2023-05-06T22:37:29.931Z,13.50
2023-05-06T22:40:00.072Z,13.50
2023-05-06T22:42:30.171Z,13.40
2023-05-06T22:45:00.160Z,13.30
2023-05-06T22:47:30.105Z,13.30
2023-05-06T22:50:00.050Z,13.30
2023-05-06T22:52:33.115Z,13.30
2023-05-06T22:55:03.141Z,13.30
2023-05-06T22:57:33.345Z,13.20
2023-05-06T23:00:03.667Z,13.10
2023-05-06T23:02:33.558Z,13.00
2023-05-06T23:05:03.589Z,12.80
2023-05-06T23:07:36.269Z,12.50
2023-05-06T23:10:06.313Z,12.60
2023-05-06T23:12:36.776Z,12.70
2023-05-06T23:15:07.537Z,12.80
2023-05-06T23:17:37.474Z,12.70
2023-05-06T23:20:08.209Z,12.80
2023-05-06T23:22:40.665Z,12.80
2023-05-06T23:25:12.112Z,12.90
2023-05-06T23:27:42.877Z,12.90
2023-05-06T23:30:14.008Z,12.90
2023-05-06T23:32:44.026Z,13.00
2023-05-06T23:35:14.155Z,13.00
2023-05-06T23:37:46.869Z,13.10
2023-05-06T23:40:17.152Z,13.20
2023-05-06T23:42:47.060Z,13.30
2023-05-06T23:45:16.992Z,13.30
2023-05-06T23:47:46.995Z,13.30
2023-05-06T23:50:17.095Z,13.30
2023-05-06T23:52:49.599Z,13.30
2023-05-06T23:55:19.548Z,13.40
2023-05-06T23:57:49.526Z,13.40
